Check time and date!

LGTT 251030Z 00000KT CAVOK 25/09 Q1019
TAF LGTT 250700Z 2509/2518 VRB05KT 9999 FEW025
--------------------------------------
LGMG 251000Z 00000KT CAVOK 25/14 Q1019 RMK FEW180
TAF LGMG 250700Z 2509/2518 VRB05KT 9999 FEW025 BECMG 2510/2512 18010KT
--------------------------------------
LGTG 251050Z 06006KT CAVOK 25/03 Q1019 RMK FEW180
TAF LGTG 251100Z 2512/2521 35006KT 9999 FEW025
--------------------------------------
LGEL 251050Z 18007KT CAVOK 26/08 Q1018 RMK FEW180
TAF LGEL 250500Z 2506/2606 VRB05KT 9999 FEW025
--------------------------------------
LGAV 251050Z 11006KT 070V160 CAVOK 24/07 Q1019 RMK FEW180NOSIG
TAF LGAV 250500Z 2506/2606 VRB05KT 9999 FEW025 BECMG 2511/2513 16008KT
--------------------------------------
LGAT 251000Z 23005KT 9999 FEW025 25/12 Q1019
--------------------------------------
METAR LGAD 251050Z 29006KT 9999 FEW020 24/14 Q1019
METAR LGAL 251050Z 23006KT 9999 FEW030 23/10 Q1019
METAR LGAV 251050Z 11006KT 070V160 CAVOK 24/07 Q1019 NOSIG
METAR LGBL 251050Z 09006KT CAVOK 24/13 Q1018
METAR LGEL 251050Z 18007KT CAVOK 26/08 Q1018
METAR LGHI 251050Z 03008KT CAVOK 23/06 Q1018
METAR LGIO 251050Z 12004KT 040V150 CAVOK 23/04 Q1020
METAR LGIR 251050Z 35005KT CAVOK 24/13 Q1019 NOSIG
METAR LGKC 251050Z 07006KT 9999 FEW025 23/16 Q1020
METAR LGKF 251050Z 25004KT 9999 FEW018 23/10 Q1019
METAR LGKL 251050Z 16009KT 9999 FEW025 26/08 Q1019
METAR LGKO 251050Z 19005KT 120V270 CAVOK 28/11 Q1018
METAR LGKP 251050Z 32013KT CAVOK 25/15 Q1018
METAR LGKR 251050Z 11007KT 9999 FEW020 23/13 Q1019 NOSIG
METAR LGKV 251050Z 20010KT 9999 FEW020 23/12 Q1019
METAR LGKZ 251050Z AUTO 15005KT 090V220 //// // ////// 22/04 Q1020 RE//
METAR LGLM 251050Z VRB03KT CAVOK 23/07 Q1019
METAR LGLR 251050Z 00000KT CAVOK 26/09 Q1018 RMK SCT200 BLU
METAR LGMK 251050Z /////KT CAVOK 24/15 Q1019
METAR LGMT 251050Z VRB02KT 9999 FEW025 21/10 Q1019
METAR LGNX 251050Z 35010KT CAVOK 23/11 Q1019
METAR LGPA 251050Z 33009KT CAVOK 23/09 Q1019
METAR LGPZ 251050Z 28009KT 9999 FEW018 25/13 Q1020
METAR LGRP 251050Z VRB04KT CAVOK 26/14 Q1017 NOSIG
METAR LGRX 251050Z 29005KT CAVOK 24/12 Q1019
METAR LGSA 251050Z 08008KT CAVOK 23/13 Q1018
METAR LGSK 251050Z 10006KT 9999 FEW025 24/13 Q1018
METAR LGSM 251050Z 11010KT 9999 FEW025 23/11 Q1019
METAR LGSO 251050Z 05005KT 020V090 CAVOK 23/09 Q1019
METAR LGSR 251050Z 02006KT CAVOK 24/09 Q1019
METAR LGSY 251050Z 07008KT CAVOK 22/10 Q1019 RMK FEW200 BLU
METAR LGTG 251050Z 06006KT CAVOK 25/03 Q1019 RMK FEW180 BLU
METAR LGTS 251050Z 18007KT 130V250 9999 FEW025 22/12 Q1019 NOSIG
METAR LGZA 251050Z 16006KT 9999 SCT020 25/15 Q1019

--------------------------------------
TAF LGAD 250800Z 2509/2518 30008KT 9999 FEW025 BECMG 2516/2518 VRB03KT
TAF LGAL 250800Z 2509/2518 VRB05KT 9999 FEW025 TEMPO 2510/2515 24010KT
TAF LGAV 250500Z 2506/2606 VRB05KT 9999 FEW025 BECMG 2511/2513 16008KT
TAF LGBL 250800Z 2509/2518 10008KT 9999 FEW025 BECMG 2516/2518 28006KT
TAF LGEL 250500Z 2506/2606 VRB05KT 9999 FEW025
TAF LGHI 250800Z 2509/2518 01012KT 9999 FEW025
TAF LGIO 250800Z 2509/2518 VRB03KT 9999 FEW025
TAF LGIR 250500Z 2506/2606 36008KT 9999 FEW025 BECMG 2514/2516 VRB05KT
TAF LGKC 250800Z 2509/2518 VRB05KT 9999 FEW018
TAF LGKF 250800Z 2509/2518 VRB05KT 9999 FEW018
TAF LGKL 250800Z 2509/2518 16008KT 9999 FEW030 BECMG 2516/2518 34006KT
TAF LGKO 250500Z 2506/2606 35010KT 9999 FEW025
TAF LGKP 250800Z 2509/2518 32018KT 9999 FEW025
TAF LGKR 250500Z 2506/2606 VRB05KT 9999 FEW020 BECMG 2518/2520 FEW016 BECMG 2520/2522 12010KT FEW016 SCT020
TAF LGKV 250500Z 2506/2606 VRB03KT 9999 FEW025 BECMG 2510/2512 22012KT BECMG 2518/2520 VRB03KT PROB30 2600/2606 5000 BR SCT008
TAF LGLM 250800Z 2509/2518 VRB05KT 9999 FEW025
TAF LGLR 250800Z 2509/2518 VRB03KT 9999 FEW025 BECMG 2510/2512 08008KT
TAF LGMK 250800Z 2509/2518 36012KT 9999 FEW020
TAF LGMT 250800Z 2509/2518 VRB05KT 9999 FEW025
TAF LGPZ 250500Z 2506/2606 VRB05KT 9999 FEW020 BECMG 2600/2602 09010KT FEW016 BECMG 2604/2606 FEW016 SCT020
TAF LGRP 250500Z 2506/2606 22006KT 9999 FEW025
TAF LGRX 250800Z 2509/2518 29008KT 9999 FEW025 BECMG 2516/2518 VRB03KT
TAF LGSA 250500Z 2506/2606 VRB05KT 9999 FEW025
TAF LGSK 250800Z 2509/2518 12012KT 9999 FEW020
TAF LGSM 250800Z 2509/2518 03008KT 9999 FEW025
TAF LGSR 250500Z 2506/2606 36010KT 9999 FEW025 BECMG 2509/2511 VRB05KT BECMG 2600/2602 FEW016
TAF LGST 250800Z 2509/2518 29013KT 9999 FEW025
TAF LGSY 250800Z 2509/2518 14008KT 9999 FEW025
TAF LGTG 250800Z 2509/2518 35006KT 9999 FEW025
TAF LGTL 250800Z 2509/2518 35010KT 9999 FEW025
TAF LGTS 250500Z 2506/2606 VRB03KT 9999 FEW025 BECMG 2510/2512 15013KT BECMG 2518/2520 VRB03KT PROB30 2600/2606 5000 BR SCT008
TAF LGZA 250800Z 2509/2518 VRB05KT 9999 FEW018